Saint George, Canada
Current Conditions -  °F | °C
As of 5:00 PM on Saturday 25 Oct 2014 (Local Time) from CYSJ Reporting Station
Light Rain Light Rain  
Wind Chill: 42°   Ceiling: 1200
Heat Index: 46°   Visibility: 10mi
Dew Point: 45°   Wind: 9mph
Humidity: 93%   Direction: 330°NNW
Pressure: 29.56"   Gusts: NA
Location:  45.13°N, 66.82°W
Report Text: CYSJ 252000Z 33008KT 10SM -RA FEW006 OVC012 08/07 A2956 RMK SF2SC6 SLP011
Loading
Personal Weather Stations






























Interactive Weather Map
Tropical Storm Tracking
New forecast layout! Learn more

10-Day Weather Forecast

Advertisements
Track Severe Weather on mobile